Time;durP1;ratioP1;P1;durP2;ratioP2;P2;SDS_P1;SDS_P2;PMS_P1;PMS_P2;Temp;Humidity;BMP_temperature;BMP_pressure;BME280_temperature;BME280_humidity;BME280_pressure;Samples;Min_cycle;Max_cycle;Signal;HPM_P1;HPM_P2
2023/11/08 00:01:49;;;;;;;7.20;2.07;;;6.50;1.00;;;;;;5014701;28;20466;-70
2023/11/08 00:04:15;;;;;;;4.37;1.70;;;6.50;1.00;;;;;;4997620;28;20582;-70
2023/11/08 00:06:41;;;;;;;6.27;1.40;;;6.40;1.40;;;;;;5015036;28;20415;-70
2023/11/08 00:09:09;;;;;;;3.80;1.43;;;6.40;2.10;;;;;;5015007;28;20176;-70
2023/11/08 00:11:35;;;;;;;5.43;1.70;;;6.30;2.00;;;;;;4997099;28;20457;-70
2023/11/08 00:14:00;;;;;;;3.30;1.77;;;6.20;2.60;;;;;;5014783;28;20454;-70
2023/11/08 00:16:26;;;;;;;4.20;1.60;;;6.10;2.90;;;;;;4997149;28;20608;-70
2023/11/08 00:18:52;;;;;;;10.37;1.43;;;6.10;3.50;;;;;;5014970;28;20176;-70
2023/11/08 00:21:18;;;;;;;3.20;1.23;;;6.00;3.40;;;;;;4996768;28;20465;-70
2023/11/08 00:23:43;;;;;;;3.40;1.50;;;6.00;3.40;;;;;;4997070;28;20570;-69
2023/11/08 00:26:09;;;;;;;2.50;1.30;;;5.90;3.80;;;;;;4997049;28;20290;-69
2023/11/08 00:28:35;;;;;;;2.10;1.10;;;5.80;4.40;;;;;;5015034;28;20179;-69
2023/11/08 00:31:01;;;;;;;5.07;2.03;;;5.80;5.10;;;;;;4996610;28;20180;-70
2023/11/08 00:33:27;;;;;;;2.73;1.40;;;5.70;5.40;;;;;;4996776;28;20267;-69
2023/11/08 00:35:52;;;;;;;2.23;1.23;;;5.70;5.60;;;;;;4996704;28;20520;-69
2023/11/08 00:38:18;;;;;;;3.40;1.77;;;5.70;6.00;;;;;;4996727;28;20671;-69
2023/11/08 00:40:43;;;;;;;2.63;1.33;;;5.70;7.20;;;;;;4996651;28;20226;-70
2023/11/08 00:43:10;;;;;;;2.50;1.47;;;5.70;6.80;;;;;;5014267;28;20168;-69
2023/11/08 00:45:36;;;;;;;2.70;1.67;;;5.70;6.10;;;;;;4996517;28;20207;-69
2023/11/08 00:48:01;;;;;;;4.43;1.20;;;5.70;5.90;;;;;;4996552;28;20951;-69
2023/11/08 00:50:30;;;;;;;2.07;1.20;;;5.80;5.70;;;;;;4996487;28;20461;-70
2023/11/08 00:52:58;;;;;;;3.30;1.10;;;5.80;5.40;;;;;;4996325;28;20184;-70
2023/11/08 00:55:24;;;;;;;2.47;1.23;;;5.80;5.20;;;;;;4996433;28;20447;-70
2023/11/08 00:57:50;;;;;;;3.77;1.20;;;5.80;5.70;;;;;;5014043;28;20446;-70
2023/11/08 01:00:16;;;;;;;3.83;1.07;;;5.90;5.10;;;;;;4995094;28;20465;-70
2023/11/08 01:02:41;;;;;;;2.37;1.20;;;6.00;5.00;;;;;;4996173;28;20423;-70
2023/11/08 01:05:07;;;;;;;1.97;0.90;;;6.00;4.40;;;;;;4996477;28;20442;-69
2023/11/08 01:07:33;;;;;;;3.83;1.10;;;6.10;3.70;;;;;;5013866;28;20171;-70
2023/11/08 01:09:59;;;;;;;2.37;1.00;;;6.20;3.90;;;;;;5013957;28;20991;-69
2023/11/08 01:12:25;;;;;;;2.70;1.27;;;6.20;3.90;;;;;;5013498;28;20195;-70
2023/11/08 01:14:51;;;;;;;6.40;1.30;;;6.30;3.50;;;;;;4995947;28;20451;-70
2023/11/08 01:17:17;;;;;;;2.00;0.90;;;6.30;3.00;;;;;;5013667;28;20164;-69
2023/11/08 01:19:43;;;;;;;2.50;1.27;;;6.40;2.70;;;;;;4996052;28;20415;-69
2023/11/08 01:22:09;;;;;;;1.90;1.10;;;6.50;2.30;;;;;;5013280;28;20575;-70
2023/11/08 01:24:36;;;;;;;2.30;1.40;;;6.50;1.90;;;;;;4995793;28;20196;-69
2023/11/08 01:27:02;;;;;;;2.30;1.03;;;6.60;2.30;;;;;;5013693;28;20796;-70
2023/11/08 01:29:28;;;;;;;1.80;0.87;;;6.70;2.70;;;;;;5013421;28;20415;-70
2023/11/08 01:31:54;;;;;;;1.77;0.90;;;6.70;2.50;;;;;;5013147;28;20451;-70
2023/11/08 01:34:20;;;;;;;2.27;0.90;;;6.80;2.70;;;;;;4995662;28;20211;-70
2023/11/08 01:36:46;;;;;;;6.13;1.20;;;6.80;2.70;;;;;;5013381;28;20423;-70
2023/11/08 01:39:12;;;;;;;2.07;1.00;;;6.90;3.30;;;;;;4995827;28;20421;-70
2023/11/08 01:41:38;;;;;;;2.20;1.10;;;6.90;3.40;;;;;;5012908;28;20455;-70
2023/11/08 01:44:04;;;;;;;2.43;1.50;;;6.90;4.00;;;;;;4995674;28;20212;-69
2023/11/08 01:46:31;;;;;;;3.83;1.30;;;7.00;3.40;;;;;;5013116;28;20950;-69
2023/11/08 01:48:58;;;;;;;2.03;1.03;;;7.00;4.10;;;;;;5013079;28;20407;-70
2023/11/08 01:51:27;;;;;;;2.10;1.07;;;7.00;4.70;;;;;;5012799;28;20411;-70
2023/11/08 01:53:54;;;;;;;2.00;0.80;;;7.10;4.10;;;;;;4995445;28;20529;-70
2023/11/08 01:56:21;;;;;;;3.97;2.13;;;7.10;4.60;;;;;;4995204;28;20558;-70
2023/11/08 01:58:47;;;;;;;2.40;1.20;;;7.10;4.10;;;;;;4995217;28;20461;-70
2023/11/08 02:01:13;;;;;;;4.37;1.60;;;7.20;4.20;;;;;;5012635;28;20676;-69
2023/11/08 02:03:42;;;;;;;4.23;1.87;;;7.20;4.20;;;;;;5012740;28;20785;-70
2023/11/08 02:06:10;;;;;;;3.30;1.60;;;7.20;5.50;;;;;;4995128;28;20240;-69
2023/11/08 02:08:38;;;;;;;2.50;1.50;;;7.10;5.20;;;;;;5012697;28;20418;-70
2023/11/08 02:11:05;;;;;;;2.63;1.10;;;7.30;4.90;;;;;;4994396;28;20424;-70
2023/11/08 02:13:32;;;;;;;1.93;0.87;;;7.30;5.00;;;;;;4994982;28;20423;-70
2023/11/08 02:15:59;;;;;;;3.73;1.60;;;7.30;5.70;;;;;;5012561;28;20435;-69
2023/11/08 02:18:25;;;;;;;2.47;1.30;;;7.30;6.30;;;;;;4995048;28;20438;-70
2023/11/08 02:20:51;;;;;;;4.23;2.90;;;7.20;6.40;;;;;;4994820;28;20454;-69
2023/11/08 02:23:17;;;;;;;3.30;1.73;;;7.10;7.30;;;;;;4994672;28;20455;-70
2023/11/08 02:25:43;;;;;;;3.90;1.23;;;7.10;7.80;;;;;;5012332;28;20463;-70
2023/11/08 02:28:09;;;;;;;1.90;1.10;;;7.00;8.50;;;;;;5012529;28;20172;-70
2023/11/08 02:30:34;;;;;;;2.90;1.57;;;6.90;8.80;;;;;;5012402;28;20502;-69
2023/11/08 02:33:00;;;;;;;2.03;0.97;;;6.80;11.20;;;;;;4994641;28;20999;-70
2023/11/08 02:35:26;;;;;;;3.07;1.33;;;6.60;11.80;;;;;;4994642;28;20200;-69
2023/11/08 02:37:52;;;;;;;4.93;1.67;;;6.60;13.20;;;;;;4994714;28;20513;-69
2023/11/08 02:40:18;;;;;;;3.00;1.67;;;6.50;14.90;;;;;;5012082;28;20458;-69
2023/11/08 02:42:48;;;;;;;3.40;1.23;;;6.40;15.60;;;;;;5012295;28;20176;-70
2023/11/08 02:45:14;;;;;;;3.00;1.27;;;6.30;16.20;;;;;;4994472;28;20196;-70
2023/11/08 02:47:40;;;;;;;2.90;1.13;;;6.20;16.30;;;;;;4994596;28;20429;-70
2023/11/08 02:50:07;;;;;;;2.40;1.00;;;6.10;17.20;;;;;;4994547;28;20210;-70
2023/11/08 02:52:32;;;;;;;3.50;1.30;;;6.10;18.50;;;;;;4994146;28;20565;-70
2023/11/08 02:54:58;;;;;;;3.20;1.27;;;6.00;18.90;;;;;;5012059;28;20521;-70
2023/11/08 02:57:24;;;;;;;2.23;1.27;;;5.90;19.40;;;;;;5012068;28;20168;-70
2023/11/08 02:59:51;;;;;;;5.63;2.20;;;5.80;19.30;;;;;;4994327;28;20453;-70
2023/11/08 03:02:17;;;;;;;4.63;1.83;;;5.70;19.50;;;;;;4993993;28;20211;-70
2023/11/08 03:04:43;;;;;;;4.37;2.03;;;5.60;20.50;;;;;;5012046;28;20431;-69
2023/11/08 03:07:09;;;;;;;4.93;2.33;;;5.60;21.10;;;;;;5012421;28;20412;-69
2023/11/08 03:09:34;;;;;;;6.67;1.60;;;5.50;21.20;;;;;;5011930;28;20172;-69
2023/11/08 03:12:00;;;;;;;3.00;1.67;;;5.40;21.10;;;;;;4993956;28;20683;-69
2023/11/08 03:14:26;;;;;;;2.57;1.10;;;5.40;20.60;;;;;;5023117;23;20698;-69
2023/11/08 03:16:53;;;;;;;2.17;1.33;;;5.40;20.40;;;;;;5031763;28;20193;-70
2023/11/08 03:19:21;;;;;;;2.50;1.10;;;5.30;20.30;;;;;;5031817;28;20496;-70
2023/11/08 03:21:48;;;;;;;2.87;1.30;;;5.30;20.30;;;;;;5031267;28;20534;-70
2023/11/08 03:24:14;;;;;;;3.40;1.37;;;5.30;20.30;;;;;;5014087;28;20456;-69
2023/11/08 03:26:41;;;;;;;2.27;1.07;;;5.20;20.30;;;;;;5015887;28;20812;-71
2023/11/08 03:29:06;;;;;;;5.80;1.60;;;5.20;20.30;;;;;;5015961;28;20407;-69
2023/11/08 03:31:32;;;;;;;2.60;1.33;;;5.20;20.20;;;;;;5015716;28;20416;-69
2023/11/08 03:33:58;;;;;;;3.87;2.07;;;5.10;20.20;;;;;;4998122;28;20187;-69
2023/11/08 03:36:28;;;;;;;11.87;1.60;;;5.10;20.20;;;;;;5016222;28;20180;-69
2023/11/08 03:38:55;;;;;;;3.53;1.50;;;5.20;20.20;;;;;;5014794;28;20433;-68
2023/11/08 03:41:25;;;;;;;3.20;1.27;;;5.20;20.20;;;;;;5015592;28;20836;-69
2023/11/08 03:43:54;;;;;;;13.50;1.50;;;5.30;20.10;;;;;;5014348;28;20486;-69
2023/11/08 03:46:21;;;;;;;3.13;1.23;;;5.40;19.70;;;;;;5015599;28;20442;-69
2023/11/08 03:48:54;;;;;;;3.93;1.40;;;5.40;18.30;;;;;;5015491;28;20421;-69
2023/11/08 03:51:20;;;;;;;5.47;1.70;;;5.60;16.30;;;;;;5015531;28;20505;-69
2023/11/08 03:53:45;;;;;;;3.37;1.70;;;5.70;16.20;;;;;;4998439;28;20472;-69
2023/11/08 03:56:12;;;;;;;2.03;1.00;;;5.70;14.70;;;;;;4997939;28;20447;-70
2023/11/08 03:58:38;;;;;;;2.77;1.13;;;5.80;14.90;;;;;;4998052;28;20437;-70
2023/11/08 04:01:04;;;;;;;3.63;1.70;;;5.80;14.40;;;;;;5003735;28;20466;-71
2023/11/08 04:03:32;;;;;;;2.87;1.30;;;5.90;13.60;;;;;;5006399;28;20676;-70
2023/11/08 04:05:58;;;;;;;4.93;1.73;;;5.90;13.10;;;;;;5016734;28;20495;-70
2023/11/08 04:08:23;;;;;;;3.60;1.07;;;6.00;14.50;;;;;;5015670;28;20410;-70
2023/11/08 04:10:49;;;;;;;2.43;1.10;;;6.10;13.20;;;;;;5015386;28;20195;-70
2023/11/08 04:13:15;;;;;;;3.73;1.30;;;6.10;12.30;;;;;;5015279;28;20680;-70
2023/11/08 04:15:41;;;;;;;5.10;2.00;;;6.20;11.90;;;;;;5015124;28;20545;-70
2023/11/08 04:18:06;;;;;;;6.30;1.50;;;6.30;11.30;;;;;;5015101;28;20426;-70
2023/11/08 04:20:32;;;;;;;4.03;1.47;;;6.30;11.80;;;;;;5014835;28;20222;-70
2023/11/08 04:22:58;;;;;;;2.90;1.13;;;6.30;12.40;;;;;;4997098;28;20581;-70
2023/11/08 04:25:23;;;;;;;3.10;1.20;;;6.40;11.60;;;;;;5013659;28;20207;-70
2023/11/08 04:27:49;;;;;;;2.47;1.37;;;6.40;11.20;;;;;;5015088;28;20174;-70
2023/11/08 04:30:15;;;;;;;4.30;1.67;;;6.50;10.20;;;;;;5015185;28;20194;-70
2023/11/08 04:32:43;;;;;;;2.60;1.20;;;6.60;9.70;;;;;;5013557;28;20206;-70
2023/11/08 04:35:09;;;;;;;3.40;1.20;;;6.60;9.10;;;;;;5015543;28;20431;-70
2023/11/08 04:37:37;;;;;;;3.00;1.20;;;6.60;9.80;;;;;;5015294;28;20415;-70
2023/11/08 04:40:04;;;;;;;5.43;2.53;;;6.60;9.20;;;;;;5015015;28;20419;-70
2023/11/08 04:42:30;;;;;;;6.60;1.37;;;6.60;9.30;;;;;;5015030;28;20466;-69
2023/11/08 04:44:56;;;;;;;2.90;1.60;;;6.60;9.10;;;;;;4997233;28;20803;-69
2023/11/08 04:47:21;;;;;;;6.80;1.20;;;6.70;8.80;;;;;;5015240;28;20407;-70
2023/11/08 04:49:48;;;;;;;2.80;1.40;;;6.70;8.80;;;;;;5014792;28;20180;-70
2023/11/08 04:52:15;;;;;;;2.73;1.00;;;6.80;7.60;;;;;;5014302;28;20176;-70
2023/11/08 04:54:41;;;;;;;1.70;0.97;;;6.90;8.20;;;;;;4996652;28;20813;-69
2023/11/08 04:57:06;;;;;;;2.90;1.10;;;6.90;7.90;;;;;;5014534;28;20414;-69
2023/11/08 04:59:33;;;;;;;4.17;1.53;;;7.00;6.90;;;;;;5014200;28;20941;-69
2023/11/08 05:01:59;;;;;;;3.27;1.13;;;7.10;7.00;;;;;;5013950;28;20744;-68
2023/11/08 05:04:25;;;;;;;2.00;1.13;;;7.10;6.70;;;;;;5014068;28;20432;-69
2023/11/08 05:06:50;;;;;;;3.33;1.43;;;7.10;6.80;;;;;;5014147;28;20187;-69
2023/11/08 05:09:17;;;;;;;3.27;1.00;;;7.10;7.40;;;;;;4996398;28;20185;-69
2023/11/08 05:11:42;;;;;;;2.90;1.67;;;7.20;7.00;;;;;;5013725;28;20169;-68
2023/11/08 05:14:08;;;;;;;5.30;1.23;;;7.30;7.00;;;;;;5014176;28;20458;-70
2023/11/08 05:16:35;;;;;;;2.67;1.30;;;7.30;7.10;;;;;;5013886;28;20236;-69
2023/11/08 05:19:00;;;;;;;2.23;0.93;;;7.30;6.60;;;;;;5014031;28;20423;-69
2023/11/08 05:21:26;;;;;;;8.33;2.43;;;7.30;6.80;;;;;;5013560;28;20304;-69
2023/11/08 05:23:52;;;;;;;4.00;2.03;;;7.20;5.90;;;;;;5013965;28;20185;-69
2023/11/08 05:26:21;;;;;;;4.30;2.10;;;7.10;6.20;;;;;;5013777;28;20590;-68
2023/11/08 05:28:47;;;;;;;3.00;1.53;;;7.10;5.80;;;;;;5013549;28;20506;-69
2023/11/08 05:31:12;;;;;;;3.93;1.70;;;7.10;5.70;;;;;;5013507;28;20503;-69
2023/11/08 05:33:41;;;;;;;6.03;1.37;;;7.10;5.80;;;;;;5013720;28;20182;-69
2023/11/08 05:36:07;;;;;;;2.00;1.20;;;7.20;5.50;;;;;;5013443;28;20206;-69
2023/11/08 05:38:33;;;;;;;3.50;1.70;;;7.20;5.90;;;;;;5013547;28;20506;-71
2023/11/08 05:41:01;;;;;;;5.03;1.90;;;7.20;6.40;;;;;;5013688;28;20558;-71
2023/11/08 05:43:30;;;;;;;3.03;1.27;;;7.30;5.40;;;;;;5015309;28;20205;-68
2023/11/08 05:46:02;;;;;;;3.17;1.53;;;7.20;5.90;;;;;;5013931;28;20423;-71
2023/11/08 05:48:28;;;;;;;3.67;1.43;;;7.20;6.50;;;;;;5013963;28;20411;-71
2023/11/08 05:50:53;;;;;;;1.97;1.07;;;7.30;6.50;;;;;;4996943;28;20491;-72
2023/11/08 05:53:20;;;;;;;1.90;0.97;;;7.30;6.50;;;;;;4995886;28;20181;-70
2023/11/08 05:55:46;;;;;;;2.07;1.10;;;7.40;6.30;;;;;;5013497;28;20225;-70
2023/11/08 05:58:11;;;;;;;3.97;1.60;;;7.40;5.90;;;;;;5013552;28;20451;-70
2023/11/08 06:00:37;;;;;;;2.67;1.37;;;7.40;5.00;;;;;;5012868;28;20204;-70
2023/11/08 06:03:03;;;;;;;3.60;1.57;;;7.40;5.90;;;;;;5012899;28;20173;-70
2023/11/08 06:05:28;;;;;;;4.77;1.50;;;7.40;5.80;;;;;;5013026;28;20199;-70
2023/11/08 06:07:56;;;;;;;2.73;1.00;;;7.40;6.10;;;;;;5013085;28;20614;-71
2023/11/08 06:10:28;;;;;;;5.80;1.37;;;7.40;6.60;;;;;;5013218;28;20171;-70
2023/11/08 06:12:53;;;;;;;2.70;1.37;;;7.40;6.30;;;;;;5012703;28;20506;-70
2023/11/08 06:15:19;;;;;;;3.10;1.93;;;7.30;6.20;;;;;;5011506;28;20533;-70
2023/11/08 06:17:44;;;;;;;2.50;1.43;;;7.30;7.20;;;;;;5012906;28;20269;-71
2023/11/08 06:20:11;;;;;;;4.90;1.97;;;7.30;6.60;;;;;;4996467;28;20236;-70
2023/11/08 06:22:37;;;;;;;3.00;1.40;;;7.20;5.80;;;;;;5013617;28;20233;-70
2023/11/08 06:25:03;;;;;;;2.90;1.80;;;7.20;5.60;;;;;;5014256;28;20513;-71
2023/11/08 06:27:29;;;;;;;3.77;1.90;;;7.20;5.90;;;;;;5013980;28;20447;-71
2023/11/08 06:29:55;;;;;;;3.90;2.30;;;7.10;6.20;;;;;;5014990;28;20180;-71
2023/11/08 06:32:20;;;;;;;6.03;2.33;;;7.20;6.20;;;;;;4995729;28;20181;-72
2023/11/08 06:34:46;;;;;;;2.83;1.53;;;7.20;5.70;;;;;;5013173;28;20444;-72
2023/11/08 06:37:13;;;;;;;2.30;1.53;;;7.20;5.60;;;;;;5013471;28;20784;-71
2023/11/08 06:39:39;;;;;;;2.70;1.53;;;7.20;5.30;;;;;;5013313;28;20874;-71
2023/11/08 06:42:05;;;;;;;2.90;1.30;;;7.20;5.50;;;;;;4995245;28;20477;-70
2023/11/08 06:44:31;;;;;;;3.60;1.20;;;7.30;5.00;;;;;;4995618;28;20202;-71
2023/11/08 06:47:00;;;;;;;3.10;1.20;;;7.30;5.20;;;;;;5012892;28;20416;-73
2023/11/08 06:49:25;;;;;;;5.50;1.40;;;7.40;4.90;;;;;;5012994;28;20420;-71
2023/11/08 06:51:51;;;;;;;2.73;1.00;;;7.40;4.40;;;;;;5012655;28;20442;-70
2023/11/08 06:54:16;;;;;;;2.73;1.10;;;7.40;4.70;;;;;;4995559;28;20292;-71
2023/11/08 06:56:42;;;;;;;3.83;1.57;;;7.40;4.70;;;;;;5011837;28;20246;-72
2023/11/08 06:59:07;;;;;;;2.30;1.20;;;7.40;4.90;;;;;;5012534;28;20599;-71
2023/11/08 07:01:35;;;;;;;2.97;1.33;;;7.30;4.60;;;;;;5012636;28;20223;-71
2023/11/08 07:04:01;;;;;;;6.23;1.40;;;7.30;5.10;;;;;;5013032;28;20181;-72
2023/11/08 07:06:29;;;;;;;3.13;1.10;;;7.30;4.90;;;;;;5012881;28;20413;-71
2023/11/08 07:08:54;;;;;;;2.73;1.10;;;7.30;5.60;;;;;;5012965;28;20173;-71
2023/11/08 07:11:20;;;;;;;3.10;1.10;;;7.30;5.70;;;;;;5012631;28;20478;-71
2023/11/08 07:13:45;;;;;;;7.83;1.53;;;7.40;6.00;;;;;;4995270;28;20190;-71
2023/11/08 07:16:11;;;;;;;3.80;1.80;;;7.60;4.40;;;;;;5012626;28;20217;-71
2023/11/08 07:18:36;;;;;;;4.13;1.70;;;7.70;5.00;;;;;;4995064;28;20194;-72
2023/11/08 07:21:02;;;;;;;5.80;1.47;;;7.90;4.60;;;;;;5011249;28;20215;-72
2023/11/08 07:23:28;;;;;;;3.43;1.53;;;8.00;3.90;;;;;;5012613;28;20254;-72
2023/11/08 07:25:54;;;;;;;3.83;1.90;;;8.10;3.00;;;;;;4994635;28;20659;-72
2023/11/08 07:28:20;;;;;;;2.70;1.60;;;8.20;2.60;;;;;;5012698;28;20258;-72
2023/11/08 07:30:46;;;;;;;2.50;1.37;;;8.40;2.20;;;;;;5012415;28;20489;-72
2023/11/08 07:33:11;;;;;;;2.20;1.53;;;8.50;1.10;;;;;;5012462;28;20298;-72
2023/11/08 07:35:38;;;;;;;3.90;1.00;;;8.70;1.00;;;;;;5012638;28;20532;-72
2023/11/08 07:38:04;;;;;;;2.30;1.27;;;8.80;1.00;;;;;;5012228;28;20273;-71
2023/11/08 07:40:32;;;;;;;2.43;1.00;;;9.00;1.00;;;;;;5012227;28;20910;-72
2023/11/08 07:42:58;;;;;;;4.00;1.60;;;8.90;1.00;;;;;;5012430;28;20656;-72
2023/11/08 07:45:24;;;;;;;6.43;1.40;;;8.90;1.00;;;;;;5012344;28;20449;-72
2023/11/08 07:47:49;;;;;;;4.53;1.40;;;8.90;1.00;;;;;;5012080;28;20516;-72
2023/11/08 07:50:16;;;;;;;2.23;1.30;;;9.00;1.00;;;;;;5012272;28;20179;-72
2023/11/08 07:52:42;;;;;;;2.57;1.33;;;9.10;1.00;;;;;;5008038;28;20613;-71
2023/11/08 07:55:11;;;;;;;4.40;1.73;;;9.10;1.00;;;;;;5011085;28;20477;-71
2023/11/08 07:57:40;;;;;;;3.23;1.30;;;9.40;1.00;;;;;;5010965;28;20438;-73
2023/11/08 08:00:08;;;;;;;3.13;1.20;;;9.50;1.00;;;;;;5014800;28;20415;-69
2023/11/08 08:02:34;;;;;;;1.80;1.20;;;9.50;1.00;;;;;;5014116;28;20427;-69
2023/11/08 08:04:59;;;;;;;2.37;1.63;;;9.60;1.00;;;;;;5013311;28;20426;-69
2023/11/08 08:07:27;;;;;;;2.27;1.00;;;9.70;1.00;;;;;;5012682;28;20442;-68
2023/11/08 08:09:54;;;;;;;3.73;1.07;;;9.90;1.00;;;;;;5011060;28;20176;-69
2023/11/08 08:12:19;;;;;;;1.80;0.90;;;10.10;1.00;;;;;;5018055;28;20427;-70
2023/11/08 08:14:45;;;;;;;2.27;0.90;;;10.10;1.00;;;;;;5013242;28;20980;-70
2023/11/08 08:17:12;;;;;;;3.10;1.03;;;9.90;1.00;;;;;;5014045;28;20184;-69
2023/11/08 08:19:38;;;;;;;2.20;1.10;;;9.80;1.00;;;;;;4996224;28;20831;-70
2023/11/08 08:22:04;;;;;;;5.20;1.13;;;9.70;1.00;;;;;;5013460;28;20465;-70
2023/11/08 08:24:29;;;;;;;5.10;0.90;;;9.50;1.00;;;;;;5013953;28;20299;-70
2023/11/08 08:26:59;;;;;;;2.67;2.00;;;9.60;1.00;;;;;;5012922;28;20505;-68
2023/11/08 08:29:26;;;;;;;2.23;1.20;;;9.70;1.00;;;;;;5012000;28;20226;-68
2023/11/08 08:31:53;;;;;;;2.30;1.40;;;9.80;1.00;;;;;;5011492;28;20475;-68
2023/11/08 08:34:19;;;;;;;2.30;1.00;;;9.80;1.00;;;;;;5012805;28;20885;-68
2023/11/08 08:36:44;;;;;;;3.57;1.27;;;9.70;1.00;;;;;;5018414;28;20426;-67
2023/11/08 08:39:10;;;;;;;2.43;0.83;;;9.60;1.00;;;;;;5015932;28;20418;-69
2023/11/08 08:41:36;;;;;;;2.17;0.90;;;9.50;1.00;;;;;;5014237;28;20213;-69
2023/11/08 08:44:01;;;;;;;2.43;1.00;;;9.40;1.00;;;;;;5014672;28;20184;-68
2023/11/08 08:46:28;;;;;;;2.13;1.03;;;9.40;1.00;;;;;;4997050;28;20638;-68
2023/11/08 08:48:54;;;;;;;2.60;0.97;;;9.50;1.00;;;;;;5013797;28;20187;-68
2023/11/08 08:51:19;;;;;;;1.90;0.70;;;9.40;1.00;;;;;;5014237;28;20427;-68
2023/11/08 08:53:45;;;;;;;3.00;0.90;;;9.50;1.00;;;;;;5013262;28;20191;-69
2023/11/08 08:56:11;;;;;;;1.73;0.77;;;9.50;1.00;;;;;;5014547;28;20192;-69
2023/11/08 08:58:37;;;;;;;2.67;1.17;;;9.70;1.00;;;;;;5014558;28;20187;-69
2023/11/08 09:01:04;;;;;;;3.93;0.90;;;9.80;1.00;;;;;;5013168;28;20561;-68
2023/11/08 09:03:30;;;;;;;2.20;1.00;;;9.80;1.00;;;;;;4992669;28;20431;-71
2023/11/08 09:05:57;;;;;;;2.20;1.10;;;9.70;1.00;;;;;;5010538;28;20442;-69
2023/11/08 09:08:23;;;;;;;4.57;0.77;;;9.60;1.00;;;;;;5010477;28;20426;-69
2023/11/08 09:10:48;;;;;;;3.10;1.20;;;9.60;1.00;;;;;;5010120;28;20427;-68
2023/11/08 09:13:14;;;;;;;2.63;1.23;;;9.60;1.00;;;;;;5010234;28;20570;-68
2023/11/08 09:15:39;;;;;;;1.97;1.03;;;10.00;1.00;;;;;;4985451;28;20213;-68
2023/11/08 09:18:05;;;;;;;1.80;0.77;;;10.30;1.00;;;;;;4991522;28;20189;-68
2023/11/08 09:20:34;;;;;;;2.30;1.00;;;10.60;1.00;;;;;;4988729;28;20223;-69
2023/11/08 09:23:00;;;;;;;2.13;0.60;;;10.70;1.00;;;;;;4972520;28;20195;-69
2023/11/08 09:25:26;;;;;;;1.60;0.70;;;10.80;1.00;;;;;;4972621;28;20973;-68
2023/11/08 09:27:52;;;;;;;2.43;1.07;;;10.80;1.00;;;;;;4991276;28;20434;-69
2023/11/08 09:30:17;;;;;;;2.20;0.83;;;10.90;1.00;;;;;;4990398;28;20223;-69
2023/11/08 09:32:45;;;;;;;2.63;1.10;;;10.90;1.00;;;;;;4988768;28;20186;-68
2023/11/08 09:35:10;;;;;;;2.20;1.17;;;10.90;1.00;;;;;;4991618;28;20232;-68
2023/11/08 09:37:36;;;;;;;1.90;1.07;;;11.00;1.00;;;;;;4990778;28;20799;-69
2023/11/08 09:40:04;;;;;;;2.73;1.10;;;11.30;1.00;;;;;;4990681;28;20707;-68
2023/11/08 09:42:32;;;;;;;3.80;1.00;;;11.40;1.00;;;;;;4990616;28;20553;-68
2023/11/08 09:45:01;;;;;;;2.53;0.90;;;11.40;1.00;;;;;;4992413;28;20443;-69
2023/11/08 09:47:27;;;;;;;2.10;0.83;;;11.20;1.00;;;;;;4994917;28;20421;-68
2023/11/08 09:49:54;;;;;;;2.70;0.87;;;11.30;1.00;;;;;;4995036;28;21065;-68
2023/11/08 09:52:20;;;;;;;2.43;1.30;;;11.40;1.00;;;;;;4994142;28;20783;-68
2023/11/08 09:54:46;;;;;;;2.23;1.17;;;11.40;1.00;;;;;;4994477;28;20477;-68
2023/11/08 09:57:13;;;;;;;1.90;0.90;;;11.40;1.00;;;;;;4994070;28;20184;-68
2023/11/08 09:59:41;;;;;;;1.80;1.07;;;11.40;1.00;;;;;;4994493;28;20502;-69
2023/11/08 10:02:09;;;;;;;1.90;0.97;;;11.20;1.00;;;;;;5001453;28;20469;-69
2023/11/08 10:04:35;;;;;;;1.60;0.63;;;11.10;1.00;;;;;;5009061;28;20481;-69
2023/11/08 10:07:05;;;;;;;1.90;0.90;;;11.00;1.00;;;;;;5009768;28;20454;-69
2023/11/08 10:09:34;;;;;;;3.37;1.40;;;11.00;1.00;;;;;;5018458;28;20454;-68
2023/11/08 10:11:59;;;;;;;2.40;0.73;;;11.00;1.00;;;;;;5008849;28;20428;-69
2023/11/08 10:14:34;;;;;;;2.17;1.27;;;11.20;1.00;;;;;;5007732;28;20807;-68
2023/11/08 10:17:04;;;;;;;1.70;0.87;;;11.30;1.00;;;;;;5008118;28;20660;-68
2023/11/08 10:19:45;;;;;;;7.37;1.60;;;11.20;1.00;;;;;;5010244;28;20434;-68
2023/11/08 10:22:21;;;;;;;2.60;0.90;;;11.20;1.00;;;;;;5012925;28;20807;-67
2023/11/08 10:24:57;;;;;;;1.70;1.00;;;11.30;1.00;;;;;;5012709;28;20842;-68
2023/11/08 10:27:24;;;;;;;2.30;1.10;;;11.40;1.00;;;;;;5012978;28;20418;-68
2023/11/08 10:29:50;;;;;;;1.70;1.00;;;11.60;1.00;;;;;;5012933;28;20541;-69
2023/11/08 10:32:21;;;;;;;2.53;1.20;;;11.40;1.00;;;;;;5012790;28;20423;-69
2023/11/08 10:34:47;;;;;;;3.70;1.20;;;11.30;1.00;;;;;;5013061;28;20489;-70
2023/11/08 10:37:26;;;;;;;2.13;1.10;;;11.30;1.00;;;;;;5012859;28;20420;-70
2023/11/08 10:39:57;;;;;;;2.20;1.00;;;11.30;1.00;;;;;;5012847;28;20246;-70
2023/11/08 10:42:24;;;;;;;2.17;1.23;;;11.40;1.00;;;;;;5012544;28;20508;-70
2023/11/08 10:44:51;;;;;;;3.37;1.80;;;11.50;1.00;;;;;;5012615;28;20976;-69
2023/11/08 10:47:18;;;;;;;2.00;1.17;;;11.50;1.00;;;;;;5012611;28;20407;-69
2023/11/08 10:49:50;;;;;;;2.60;1.03;;;11.60;1.00;;;;;;5013037;28;20465;-69
2023/11/08 10:52:18;;;;;;;2.00;1.37;;;11.70;1.00;;;;;;5013833;28;20428;-69
2023/11/08 10:54:44;;;;;;;2.30;1.33;;;12.00;1.00;;;;;;4997503;28;20449;-69
2023/11/08 10:57:13;;;;;;;1.80;1.10;;;12.10;1.00;;;;;;5012871;28;20415;-68
2023/11/08 10:59:41;;;;;;;1.60;0.93;;;12.10;1.00;;;;;;5012796;28;20461;-69
2023/11/08 11:02:28;;;;;;;1.80;1.10;;;12.20;1.00;;;;;;5012206;28;20822;-68
2023/11/08 11:05:00;;;;;;;2.07;1.30;;;12.00;1.00;;;;;;5012269;28;20436;-68
2023/11/08 11:07:27;;;;;;;2.10;1.10;;;11.80;1.00;;;;;;5008801;28;20494;-69
2023/11/08 11:09:54;;;;;;;1.77;1.10;;;11.80;1.00;;;;;;5012129;28;20411;-68
2023/11/08 11:12:40;;;;;;;2.37;1.20;;;11.70;1.00;;;;;;5011888;28;20913;-69
2023/11/08 11:15:15;;;;;;;2.57;1.50;;;12.00;1.00;;;;;;5012094;28;20454;-68
2023/11/08 11:17:47;;;;;;;2.10;1.30;;;12.10;1.00;;;;;;5012335;28;20513;-68
2023/11/08 11:20:15;;;;;;;2.30;1.30;;;12.40;1.00;;;;;;5012256;28;20430;-68
2023/11/08 11:22:41;;;;;;;1.60;0.90;;;12.30;1.00;;;;;;5011984;28;20931;-68
2023/11/08 11:25:11;;;;;;;5.20;1.77;;;12.50;1.00;;;;;;5012098;28;20798;-69
2023/11/08 11:27:40;;;;;;;2.97;1.40;;;12.70;1.00;;;;;;5012341;28;20406;-68
2023/11/08 11:30:14;;;;;;;2.10;1.20;;;12.60;1.00;;;;;;5012115;28;20703;-69
2023/11/08 11:32:46;;;;;;;2.47;1.13;;;12.30;1.00;;;;;;4994240;28;20418;-68
2023/11/08 11:35:50;;;;;;;1.70;1.00;;;12.30;1.00;;;;;;4994209;28;20464;-68
2023/11/08 11:38:23;;;;;;;3.30;1.47;;;12.30;1.00;;;;;;5012167;28;20421;-69
2023/11/08 11:41:22;;;;;;;1.90;1.30;;;12.30;1.00;;;;;;4994629;28;20615;-69
2023/11/08 11:43:50;;;;;;;1.90;1.13;;;12.20;1.00;;;;;;5013286;28;20522;-69
2023/11/08 11:46:20;;;;;;;1.90;1.30;;;12.40;1.00;;;;;;5016131;28;20470;-68
2023/11/08 11:48:46;;;;;;;4.07;1.10;;;12.60;1.00;;;;;;5015985;28;20414;-68
2023/11/08 11:51:11;;;;;;;1.70;1.00;;;12.60;1.00;;;;;;5016033;28;20528;-70
2023/11/08 11:53:38;;;;;;;2.27;1.23;;;12.50;1.00;;;;;;5018568;28;20908;-70
2023/11/08 11:56:10;;;;;;;1.70;1.00;;;12.40;1.00;;;;;;5017456;28;20200;-71
2023/11/08 11:58:36;;;;;;;2.70;1.50;;;12.10;1.00;;;;;;5016817;28;20419;-68
2023/11/08 12:01:05;;;;;;;2.43;1.20;;;11.80;1.00;;;;;;5018208;28;20465;-70
2023/11/08 12:03:32;;;;;;;1.80;0.90;;;11.80;1.00;;;;;;5019436;28;20172;-71
2023/11/08 12:05:58;;;;;;;2.00;1.40;;;11.80;1.00;;;;;;5019275;28;20436;-69
2023/11/08 12:08:24;;;;;;;1.70;0.83;;;11.80;1.00;;;;;;5017983;28;20407;-70
2023/11/08 12:10:50;;;;;;;2.23;1.17;;;11.80;1.00;;;;;;5018126;28;20478;-70
2023/11/08 12:13:16;;;;;;;2.00;1.17;;;11.90;1.00;;;;;;5017174;28;20447;-70
2023/11/08 12:15:41;;;;;;;2.90;1.47;;;11.80;1.00;;;;;;5018920;28;20238;-70
2023/11/08 12:18:08;;;;;;;2.50;1.53;;;11.90;1.00;;;;;;5018531;28;20179;-70
2023/11/08 12:20:40;;;;;;;2.00;1.37;;;12.20;1.00;;;;;;5017759;28;20235;-70
2023/11/08 12:23:06;;;;;;;8.03;3.03;;;12.20;1.00;;;;;;5000154;28;20516;-70
2023/11/08 12:25:32;;;;;;;4.50;1.77;;;12.10;1.00;;;;;;5018603;28;20941;-70
2023/11/08 12:27:59;;;;;;;2.63;1.60;;;11.90;1.00;;;;;;5000812;28;20417;-69
2023/11/08 12:30:26;;;;;;;3.47;1.37;;;11.80;1.00;;;;;;5018262;28;20442;-69
2023/11/08 12:32:51;;;;;;;3.50;1.77;;;11.80;1.00;;;;;;4999314;28;20406;-69
2023/11/08 12:35:20;;;;;;;2.10;1.33;;;11.90;1.00;;;;;;5016670;28;20488;-69
2023/11/08 12:37:46;;;;;;;2.30;1.30;;;12.00;1.00;;;;;;5018857;28;20202;-69
2023/11/08 12:40:22;;;;;;;2.57;1.17;;;12.10;1.00;;;;;;5019739;28;20416;-68
2023/11/08 12:42:48;;;;;;;2.30;1.50;;;12.10;1.00;;;;;;5016699;28;20192;-68
2023/11/08 12:45:33;;;;;;;4.23;1.43;;;12.20;1.00;;;;;;5015139;28;20472;-70
2023/11/08 12:48:09;;;;;;;2.43;1.33;;;12.50;1.00;;;;;;5016950;28;20415;-70
2023/11/08 12:50:36;;;;;;;2.30;1.40;;;12.50;1.00;;;;;;5016002;28;20405;-68
2023/11/08 12:53:05;;;;;;;2.57;1.53;;;12.50;1.00;;;;;;5014144;28;20419;-68
2023/11/08 12:55:41;;;;;;;2.70;1.77;;;12.80;1.00;;;;;;5012718;28;20503;-68
2023/11/08 12:58:27;;;;;;;2.83;1.23;;;12.70;1.00;;;;;;4996319;28;20455;-68
2023/11/08 13:00:53;;;;;;;3.17;1.73;;;12.60;1.00;;;;;;5013739;28;20618;-68
2023/11/08 13:03:26;;;;;;;13.67;1.67;;;12.50;1.00;;;;;;5013500;28;20503;-68